createdAt,value
2023-05-23T06:21:47.963Z,100.00
2023-05-23T06:31:48.035Z,100.00
2023-05-23T06:41:47.911Z,100.00
2023-05-23T06:51:47.925Z,100.00
2023-05-23T07:01:48.098Z,100.00
2023-05-23T07:11:48.074Z,100.00
2023-05-23T07:21:48.117Z,100.00
2023-05-23T07:31:48.234Z,100.00
2023-05-23T07:41:48.118Z,100.00
2023-05-23T07:51:48.000Z,100.00
2023-05-23T08:01:48.066Z,100.00
2023-05-23T08:11:47.965Z,100.00
2023-05-23T08:21:48.019Z,100.00
2023-05-23T08:31:48.005Z,100.00
2023-05-23T08:41:48.240Z,100.00
2023-05-23T08:51:48.152Z,100.00
2023-05-23T09:01:48.130Z,100.00
2023-05-23T09:11:48.086Z,100.00
2023-05-23T09:21:48.200Z,100.00
2023-05-23T09:31:48.389Z,100.00
2023-05-23T09:41:48.332Z,100.00
2023-05-23T09:51:48.126Z,100.00
2023-05-23T10:01:48.364Z,100.00
2023-05-23T10:11:48.136Z,100.00
2023-05-23T10:21:48.231Z,100.00
2023-05-23T10:31:48.251Z,100.00
2023-05-23T10:41:48.218Z,100.00
2023-05-23T10:51:50.318Z,100.00
2023-05-23T11:01:48.264Z,100.00
2023-05-23T11:11:48.235Z,100.00
2023-05-23T11:21:48.383Z,100.00
2023-05-23T11:31:48.575Z,100.00
2023-05-23T11:41:48.239Z,100.00
2023-05-23T11:51:48.377Z,100.00
2023-05-23T12:01:48.229Z,100.00
2023-05-23T12:11:48.346Z,100.00
2023-05-23T12:21:48.379Z,100.00
2023-05-23T12:31:48.475Z,100.00
2023-05-23T12:41:48.498Z,100.00
2023-05-23T12:51:48.406Z,100.00
2023-05-23T13:01:48.352Z,100.00
2023-05-23T13:11:48.425Z,100.00
2023-05-23T13:21:49.865Z,100.00
2023-05-23T13:31:48.347Z,100.00
2023-05-23T13:41:48.327Z,100.00
2023-05-23T13:51:48.447Z,94.83
2023-05-23T14:01:48.474Z,91.66
2023-05-23T14:11:48.579Z,89.15
2023-05-23T14:21:48.453Z,83.26
2023-05-23T14:31:48.644Z,82.79
2023-05-23T14:41:48.514Z,79.35
2023-05-23T14:51:51.347Z,73.11
2023-05-23T15:01:48.554Z,74.89
2023-05-23T15:11:48.575Z,75.44
2023-05-23T15:21:51.395Z,75.37
2023-05-23T15:31:48.557Z,75.28
2023-05-23T15:41:48.528Z,73.71
2023-05-23T15:51:48.530Z,74.66
2023-05-23T16:01:48.569Z,75.65
2023-05-23T16:11:48.461Z,77.14
2023-05-23T16:21:48.638Z,75.77
2023-05-23T16:31:48.631Z,75.10
2023-05-23T16:41:48.467Z,72.78
2023-05-23T16:51:48.925Z,71.83
2023-05-23T17:01:48.783Z,70.02
2023-05-23T17:11:48.429Z,69.91
2023-05-23T17:21:48.635Z,71.21
2023-05-23T17:31:48.693Z,71.93
2023-05-23T17:41:48.549Z,70.50
2023-05-23T17:51:48.566Z,73.44
2023-05-23T18:01:48.568Z,72.87
2023-05-23T18:11:48.635Z,71.91
2023-05-23T18:21:48.895Z,72.74
2023-05-23T18:31:49.071Z,74.05
2023-05-23T18:41:49.036Z,75.39
2023-05-23T18:51:49.323Z,76.91
2023-05-23T19:01:49.292Z,77.73
2023-05-23T19:11:49.429Z,78.65
2023-05-23T19:21:49.707Z,80.53
